Ketchum, Idaho
Current Conditions -  °F | °C
As of 9:50 AM on Sunday 23 Nov 2014 (Local Time) from KSUN Reporting Station
Few Clouds Few Clouds  
Wind Chill: 23°   Ceiling: Unl
Heat Index: 28°   Visibility: 10mi
Dew Point: 16°   Wind: 5mph
Humidity: 59%   Direction: 320°NW
Pressure: 30.18"   Gusts: NA
Location:  43.68°N, 114.36°W
Report Text: KSUN 231650Z 32004KT 10SM FEW140 M02/M09 A3018
Loading
Personal Weather Stations






























Interactive Weather Map New forecast layout! Learn more

10-Day Weather Forecast

Advertisements
Track Severe Weather on mobile